createdAt,value
2022-10-23T00:00:00.700Z,14.62
2022-10-23T00:02:57.458Z,14.86
2022-10-23T00:05:54.860Z,15.05
2022-10-23T00:08:51.772Z,15.02
2022-10-23T00:11:49.965Z,14.95
2022-10-23T00:14:46.811Z,14.95
2022-10-23T00:17:43.844Z,15.00
2022-10-23T00:20:40.490Z,15.03
2022-10-23T00:23:37.915Z,14.82
2022-10-23T00:26:34.716Z,14.68
2022-10-23T00:29:31.606Z,14.36
2022-10-23T00:32:29.151Z,14.37
2022-10-23T00:35:25.984Z,14.51
2022-10-23T00:38:22.701Z,14.64
2022-10-23T00:41:22.482Z,14.67
2022-10-23T00:44:22.192Z,14.69
2022-10-23T00:47:19.979Z,14.56
2022-10-23T00:50:17.198Z,14.53
2022-10-23T00:53:14.661Z,14.61
2022-10-23T00:56:12.148Z,14.50
2022-10-23T00:59:08.896Z,14.44
2022-10-23T01:02:05.770Z,14.50
2022-10-23T01:05:03.154Z,14.33
2022-10-23T01:08:02.926Z,14.50
2022-10-23T01:11:15.279Z,14.47
2022-10-23T01:14:16.089Z,14.49
2022-10-23T01:17:15.084Z,14.44
2022-10-23T01:20:38.335Z,14.36
2022-10-23T01:23:45.031Z,14.35
2022-10-23T01:26:59.753Z,14.13
2022-10-23T01:30:14.227Z,14.25
2022-10-23T01:33:17.537Z,14.11
2022-10-23T01:36:17.645Z,14.09
2022-10-23T01:39:36.128Z,14.22
2022-10-23T01:42:41.973Z,14.31
2022-10-23T01:45:41.734Z,14.16
2022-10-23T01:48:46.207Z,14.13
2022-10-23T01:51:45.965Z,14.10
2022-10-23T01:54:43.411Z,14.06
2022-10-23T01:57:40.805Z,14.29
2022-10-23T02:00:37.957Z,14.26
2022-10-23T02:03:35.398Z,14.28
2022-10-23T02:06:33.082Z,14.36
2022-10-23T02:09:30.047Z,14.23
2022-10-23T02:12:53.151Z,13.92
2022-10-23T02:15:52.383Z,13.74
2022-10-23T02:19:06.720Z,13.46
2022-10-23T02:22:17.071Z,13.47
2022-10-23T02:25:18.705Z,13.81
2022-10-23T02:28:19.924Z,13.86
2022-10-23T02:31:18.775Z,13.90
2022-10-23T02:34:15.487Z,14.29
2022-10-23T02:37:12.844Z,14.57
2022-10-23T02:40:10.327Z,14.76
2022-10-23T02:43:21.056Z,14.80
2022-10-23T02:46:23.190Z,14.97
2022-10-23T02:49:19.926Z,14.57
2022-10-23T02:52:24.019Z,13.85
2022-10-23T02:55:27.401Z,13.30
2022-10-23T02:58:43.417Z,13.10
2022-10-23T03:01:52.113Z,13.67
2022-10-23T03:04:48.813Z,14.21
2022-10-23T03:07:46.016Z,14.26
2022-10-23T03:10:43.305Z,14.02
2022-10-23T03:13:41.042Z,13.76
2022-10-23T03:16:38.001Z,13.61
2022-10-23T03:19:34.771Z,13.67
2022-10-23T03:22:34.440Z,13.71
2022-10-23T03:25:31.920Z,13.77
2022-10-23T03:28:29.890Z,13.84
2022-10-23T03:31:28.833Z,13.73
2022-10-23T03:34:28.704Z,13.56
2022-10-23T03:37:26.143Z,13.46
2022-10-23T03:40:23.114Z,13.33
2022-10-23T03:43:20.965Z,13.26
2022-10-23T03:46:17.923Z,13.24
2022-10-23T03:49:14.657Z,13.29
2022-10-23T03:52:14.187Z,13.42
2022-10-23T03:55:11.592Z,13.50
2022-10-23T03:58:08.988Z,13.48
2022-10-23T04:01:06.075Z,13.24
2022-10-23T04:04:02.903Z,13.18
2022-10-23T04:07:00.811Z,13.19
2022-10-23T04:09:58.728Z,13.17
2022-10-23T04:12:56.126Z,13.15
2022-10-23T04:15:53.613Z,13.18
2022-10-23T04:18:51.052Z,13.28
2022-10-23T04:21:47.861Z,13.21
2022-10-23T04:24:46.786Z,13.24
2022-10-23T04:27:48.278Z,12.87
2022-10-23T04:30:44.924Z,12.57
2022-10-23T04:33:43.023Z,12.52
2022-10-23T04:36:42.856Z,12.65
2022-10-23T04:39:40.731Z,12.86
2022-10-23T04:42:38.225Z,13.05
2022-10-23T04:45:35.066Z,12.99
2022-10-23T04:48:32.272Z,12.91
2022-10-23T04:51:48.858Z,12.66
2022-10-23T04:55:04.644Z,12.65
2022-10-23T04:58:22.634Z,12.93
2022-10-23T05:01:20.948Z,12.93
2022-10-23T05:04:19.386Z,12.87
2022-10-23T05:07:35.748Z,12.76
2022-10-23T05:10:52.887Z,12.75
2022-10-23T05:13:49.811Z,12.64
2022-10-23T05:16:50.153Z,12.64
2022-10-23T05:19:50.675Z,12.72
2022-10-23T05:22:48.982Z,12.92
2022-10-23T05:25:46.833Z,13.08
2022-10-23T05:28:47.309Z,13.03
2022-10-23T05:31:47.531Z,12.93
2022-10-23T05:34:45.083Z,12.89
2022-10-23T05:37:43.073Z,12.82
2022-10-23T05:40:53.424Z,12.79
2022-10-23T05:43:51.868Z,12.52
2022-10-23T05:47:07.617Z,12.42
2022-10-23T05:50:31.119Z,12.57
2022-10-23T05:53:47.061Z,12.59
2022-10-23T05:57:02.278Z,12.61
2022-10-23T06:00:12.834Z,12.62
2022-10-23T06:03:12.025Z,12.68
2022-10-23T06:06:13.140Z,12.63
2022-10-23T06:09:15.829Z,12.41
2022-10-23T06:12:13.144Z,12.29
2022-10-23T06:15:13.150Z,12.41
2022-10-23T06:18:34.044Z,12.39
2022-10-23T06:21:38.886Z,12.14
2022-10-23T06:24:36.102Z,11.93
2022-10-23T06:27:34.868Z,11.95
2022-10-23T06:30:34.333Z,11.96
2022-10-23T06:33:31.423Z,11.93
2022-10-23T06:36:28.257Z,11.98
2022-10-23T06:39:41.445Z,12.02
2022-10-23T06:43:05.299Z,12.14
2022-10-23T06:46:40.984Z,12.34
2022-10-23T06:49:56.469Z,12.32
2022-10-23T06:52:54.441Z,12.31
2022-10-23T06:55:55.344Z,12.51
2022-10-23T06:58:52.902Z,12.91
2022-10-23T07:01:50.589Z,13.35
2022-10-23T07:04:48.181Z,13.54
2022-10-23T07:07:49.149Z,13.58
2022-10-23T07:10:52.213Z,13.59
2022-10-23T07:13:50.215Z,13.61
2022-10-23T07:16:47.923Z,13.67
2022-10-23T07:19:46.941Z,13.67
2022-10-23T07:22:51.308Z,13.49
2022-10-23T07:25:54.905Z,13.37
2022-10-23T07:28:55.258Z,13.28
2022-10-23T07:31:53.913Z,13.35
2022-10-23T07:35:09.431Z,13.39
2022-10-23T07:38:09.307Z,13.41
2022-10-23T07:41:12.633Z,13.31
2022-10-23T07:44:10.084Z,13.16
2022-10-23T07:47:07.367Z,13.21
2022-10-23T07:50:04.626Z,13.18
2022-10-23T07:53:01.903Z,13.14
2022-10-23T07:56:22.540Z,13.14
2022-10-23T07:59:42.171Z,13.17
2022-10-23T08:02:41.405Z,13.36
2022-10-23T08:05:41.117Z,13.57
2022-10-23T08:08:38.913Z,13.73
2022-10-23T08:11:36.705Z,13.80
2022-10-23T08:14:36.433Z,13.76
2022-10-23T08:17:33.420Z,13.77
2022-10-23T08:20:46.119Z,13.83
2022-10-23T08:23:44.418Z,13.89
2022-10-23T08:26:41.391Z,14.10
2022-10-23T08:29:40.265Z,14.39
2022-10-23T08:32:37.073Z,14.47
2022-10-23T08:35:37.800Z,14.69
2022-10-23T08:38:36.193Z,14.78
2022-10-23T08:41:44.356Z,14.84
2022-10-23T08:44:50.671Z,14.89
2022-10-23T08:47:51.167Z,14.77
2022-10-23T08:51:31.747Z,14.81
2022-10-23T08:54:53.588Z,14.59
2022-10-23T08:58:10.942Z,14.36
2022-10-23T09:01:28.536Z,14.50
2022-10-23T09:04:26.380Z,14.63
2022-10-23T09:07:45.653Z,14.77
2022-10-23T09:10:52.025Z,14.86
2022-10-23T09:14:04.600Z,15.05
2022-10-23T09:20:25.865Z,15.16
2022-10-23T09:23:23.997Z,15.19
2022-10-23T09:26:21.239Z,15.30
2022-10-23T09:29:32.851Z,15.19
2022-10-23T09:32:34.449Z,15.32
2022-10-23T09:35:31.395Z,15.41
2022-10-23T09:38:51.327Z,15.66
2022-10-23T09:41:48.212Z,15.62
2022-10-23T09:44:49.678Z,15.46
2022-10-23T09:47:47.443Z,15.49
2022-10-23T09:50:53.070Z,15.61
2022-10-23T09:53:55.444Z,15.68
2022-10-23T09:56:52.926Z,15.81
2022-10-23T09:59:54.114Z,16.04
2022-10-23T10:02:55.398Z,16.26
2022-10-23T10:06:04.151Z,16.17
2022-10-23T10:09:08.103Z,16.23
2022-10-23T10:12:19.713Z,16.18
2022-10-23T10:15:22.271Z,16.21
2022-10-23T10:18:57.946Z,15.99
2022-10-23T10:22:16.802Z,15.98
2022-10-23T10:25:38.795Z,16.11
2022-10-23T10:28:58.978Z,16.01
2022-10-23T10:32:14.437Z,16.07
2022-10-23T10:35:20.549Z,16.14
2022-10-23T10:38:46.649Z,16.21
2022-10-23T10:41:45.459Z,16.18
2022-10-23T10:45:01.654Z,16.36
2022-10-23T10:48:36.225Z,16.56
2022-10-23T10:52:08.038Z,16.66
2022-10-23T10:55:23.433Z,16.75
2022-10-23T10:58:43.580Z,16.71
2022-10-23T11:01:49.333Z,16.82
2022-10-23T11:04:55.895Z,17.05
2022-10-23T11:07:56.188Z,17.03
2022-10-23T11:10:55.347Z,17.10
2022-10-23T11:13:53.865Z,17.00
2022-10-23T11:17:15.162Z,17.02
2022-10-23T11:20:30.303Z,17.32
2022-10-23T11:23:32.975Z,17.21
2022-10-23T11:26:51.954Z,17.13
2022-10-23T11:30:01.650Z,17.20
2022-10-23T11:33:04.439Z,17.16
2022-10-23T11:36:11.186Z,17.18
2022-10-23T11:39:33.984Z,17.27
2022-10-23T11:42:41.523Z,17.45
2022-10-23T11:45:40.155Z,17.51
2022-10-23T11:48:42.558Z,17.59
2022-10-23T11:51:40.059Z,17.47
2022-10-23T11:54:37.255Z,17.73
2022-10-23T11:57:34.373Z,17.92
2022-10-23T12:00:35.478Z,17.67
2022-10-23T12:04:13.567Z,17.40
2022-10-23T12:07:36.897Z,17.40
2022-10-23T12:10:46.890Z,17.56
2022-10-23T12:13:46.302Z,17.56
2022-10-23T12:16:43.656Z,17.44
2022-10-23T12:19:47.828Z,17.43
2022-10-23T12:23:00.529Z,17.48
2022-10-23T12:26:18.064Z,17.36
2022-10-23T12:29:41.167Z,17.20
2022-10-23T12:32:57.305Z,17.24
2022-10-23T12:36:02.779Z,17.23
2022-10-23T12:39:01.136Z,17.29
2022-10-23T12:41:59.567Z,17.49
2022-10-23T12:45:02.379Z,17.56
2022-10-23T12:47:59.592Z,17.44
2022-10-23T12:50:56.522Z,17.61
2022-10-23T12:53:53.762Z,17.70
2022-10-23T12:56:50.637Z,17.65
2022-10-23T12:59:47.045Z,17.62
2022-10-23T13:02:44.643Z,17.72
2022-10-23T13:05:41.178Z,17.68
2022-10-23T13:08:43.857Z,17.60
2022-10-23T13:12:33.008Z,17.58
2022-10-23T13:15:44.175Z,17.52
2022-10-23T13:18:41.902Z,17.52
2022-10-23T13:21:39.417Z,17.53
2022-10-23T13:24:36.439Z,17.60
2022-10-23T13:27:33.978Z,17.58
2022-10-23T13:30:33.732Z,17.54
2022-10-23T13:33:40.277Z,17.60
2022-10-23T13:36:39.634Z,17.71
2022-10-23T13:39:36.664Z,17.59
2022-10-23T13:42:33.711Z,17.54
2022-10-23T13:45:30.372Z,17.54
2022-10-23T13:48:27.367Z,17.66
2022-10-23T13:51:28.651Z,17.63
2022-10-23T13:57:29.776Z,17.53
2022-10-23T14:00:27.549Z,17.58
2022-10-23T14:03:25.087Z,17.55
2022-10-23T14:06:22.377Z,17.83
2022-10-23T14:09:19.355Z,17.93
2022-10-23T14:12:16.315Z,17.77
2022-10-23T14:15:13.300Z,17.78
2022-10-23T14:18:10.584Z,17.80
2022-10-23T14:21:08.131Z,17.81
2022-10-23T14:24:05.822Z,17.91
2022-10-23T14:27:02.264Z,17.83
2022-10-23T14:29:59.817Z,17.79
2022-10-23T14:32:56.127Z,17.81
2022-10-23T14:35:53.579Z,17.79
2022-10-23T14:38:55.451Z,17.87
2022-10-23T14:41:52.500Z,17.95
2022-10-23T14:44:50.030Z,17.83
2022-10-23T14:47:47.480Z,18.00
2022-10-23T14:50:45.967Z,18.01
2022-10-23T14:53:43.371Z,18.10
2022-10-23T14:56:40.914Z,18.15
2022-10-23T14:59:38.611Z,18.30
2022-10-23T15:02:35.624Z,18.27
2022-10-23T15:05:32.555Z,18.12
2022-10-23T15:08:29.790Z,18.07
2022-10-23T15:11:26.660Z,17.84
2022-10-23T15:14:23.256Z,17.77
2022-10-23T15:17:20.362Z,17.76
2022-10-23T15:20:17.323Z,17.79
2022-10-23T15:23:14.294Z,17.90
2022-10-23T15:26:20.751Z,17.85
2022-10-23T15:29:17.739Z,17.72
2022-10-23T15:32:14.366Z,17.64
2022-10-23T15:35:11.379Z,17.62
2022-10-23T15:38:08.691Z,17.57
2022-10-23T15:41:14.375Z,17.59
2022-10-23T15:44:13.924Z,17.69
2022-10-23T15:47:11.685Z,17.73
2022-10-23T15:50:09.010Z,17.65
2022-10-23T15:53:06.734Z,17.51
2022-10-23T15:56:03.985Z,17.43
2022-10-23T15:59:01.557Z,17.33
2022-10-23T16:01:58.830Z,17.35
2022-10-23T16:04:56.684Z,17.33
2022-10-23T16:07:53.606Z,17.32
2022-10-23T16:10:50.843Z,17.27
2022-10-23T16:13:47.832Z,17.32
2022-10-23T16:16:44.781Z,17.19
2022-10-23T16:19:41.856Z,17.29
2022-10-23T16:22:41.369Z,17.28
2022-10-23T16:25:41.687Z,17.23
2022-10-23T16:28:38.865Z,17.27
2022-10-23T16:31:35.699Z,17.19
2022-10-23T16:34:32.493Z,17.19
2022-10-23T16:37:29.534Z,17.10
2022-10-23T16:40:34.492Z,17.09
2022-10-23T16:44:08.838Z,17.08
2022-10-23T16:47:17.608Z,17.08
2022-10-23T16:50:15.601Z,16.94
2022-10-23T16:53:12.495Z,17.06
2022-10-23T16:56:10.250Z,17.14
2022-10-23T16:59:07.459Z,17.08
2022-10-23T17:02:04.635Z,16.96
2022-10-23T17:05:01.558Z,16.92
2022-10-23T17:07:58.423Z,16.92
2022-10-23T17:11:12.947Z,16.89
2022-10-23T17:14:15.107Z,16.91
2022-10-23T17:17:13.644Z,16.84
2022-10-23T17:20:11.390Z,16.78
2022-10-23T17:23:08.943Z,16.81
2022-10-23T17:26:07.996Z,16.74
2022-10-23T17:29:05.981Z,16.82
2022-10-23T17:32:02.848Z,16.87
2022-10-23T17:34:59.407Z,16.85
2022-10-23T17:37:57.027Z,17.23
2022-10-23T17:40:54.474Z,17.42
2022-10-23T17:43:51.855Z,17.54
2022-10-23T17:46:55.103Z,17.38
2022-10-23T17:49:52.608Z,17.30
2022-10-23T17:52:49.811Z,17.28
2022-10-23T17:55:46.811Z,17.19
2022-10-23T17:58:43.446Z,17.28
2022-10-23T18:01:42.817Z,17.23
2022-10-23T18:04:39.672Z,17.25
2022-10-23T18:07:36.420Z,17.28
2022-10-23T18:10:35.503Z,17.21
2022-10-23T18:13:33.297Z,17.20
2022-10-23T18:16:30.904Z,17.21
2022-10-23T18:19:28.245Z,17.15
2022-10-23T18:22:25.720Z,17.27
2022-10-23T18:25:22.644Z,17.26
2022-10-23T18:28:20.362Z,17.24
2022-10-23T18:31:17.904Z,17.23
2022-10-23T18:34:20.067Z,17.23
2022-10-23T18:37:16.686Z,17.24
2022-10-23T18:40:13.700Z,17.11
2022-10-23T18:43:14.947Z,17.02
2022-10-23T18:46:16.864Z,17.14
2022-10-23T18:49:13.951Z,17.19
2022-10-23T18:52:10.927Z,17.22
2022-10-23T18:55:08.315Z,17.24
2022-10-23T18:58:05.364Z,17.40
2022-10-23T19:01:03.087Z,17.45
2022-10-23T19:04:00.961Z,17.41
2022-10-23T19:06:57.823Z,17.25
2022-10-23T19:09:55.269Z,17.40
2022-10-23T19:12:52.537Z,17.48
2022-10-23T19:15:49.759Z,17.55
2022-10-23T19:18:49.371Z,17.45
2022-10-23T19:21:46.512Z,17.36
2022-10-23T19:25:17.487Z,17.42
2022-10-23T19:28:14.514Z,17.34
2022-10-23T19:31:12.172Z,17.35
2022-10-23T19:34:09.828Z,17.36
2022-10-23T19:37:06.899Z,17.34
2022-10-23T19:40:06.675Z,17.27
2022-10-23T19:43:03.712Z,17.31
2022-10-23T19:46:06.515Z,17.32
2022-10-23T19:49:06.583Z,16.94
2022-10-23T19:52:04.236Z,16.93
2022-10-23T19:55:03.249Z,16.81
2022-10-23T19:58:00.908Z,16.71
2022-10-23T20:00:58.032Z,16.77
2022-10-23T20:03:57.705Z,16.77
2022-10-23T20:06:55.928Z,16.88
2022-10-23T20:09:52.854Z,16.71
2022-10-23T20:12:56.838Z,16.55
2022-10-23T20:16:05.040Z,16.68
2022-10-23T20:19:02.675Z,16.62
2022-10-23T20:22:00.758Z,16.55
2022-10-23T20:24:57.931Z,16.61
2022-10-23T20:27:54.867Z,16.51
2022-10-23T20:30:51.827Z,16.55
2022-10-23T20:33:48.985Z,16.50
2022-10-23T20:36:47.545Z,16.45
2022-10-23T20:39:44.815Z,16.48
2022-10-23T20:42:41.594Z,16.39
2022-10-23T20:45:39.062Z,16.34
2022-10-23T20:48:43.038Z,16.34
2022-10-23T20:51:39.795Z,16.31
2022-10-23T20:54:38.185Z,16.36
2022-10-23T20:57:35.950Z,16.30
2022-10-23T21:00:32.863Z,16.37
2022-10-23T21:03:30.189Z,16.40
2022-10-23T21:06:33.943Z,16.37
2022-10-23T21:09:38.290Z,16.32
2022-10-23T21:12:35.891Z,16.38
2022-10-23T21:15:32.592Z,16.40
2022-10-23T21:18:44.893Z,16.42
2022-10-23T21:21:43.498Z,16.43
2022-10-23T21:24:40.570Z,16.50
2022-10-23T21:27:37.976Z,16.55
2022-10-23T21:30:35.481Z,16.53
2022-10-23T21:33:33.087Z,16.51
2022-10-23T21:36:31.036Z,16.53
2022-10-23T21:39:28.586Z,16.56
2022-10-23T21:42:26.143Z,16.58
2022-10-23T21:45:22.914Z,16.60
2022-10-23T21:48:20.119Z,16.64
2022-10-23T21:51:24.002Z,16.61
2022-10-23T21:54:20.836Z,16.52
2022-10-23T21:57:17.564Z,16.57
2022-10-23T22:00:16.493Z,16.64
2022-10-23T22:03:13.814Z,16.88
2022-10-23T22:06:21.686Z,17.14
2022-10-23T22:09:19.873Z,17.09
2022-10-23T22:12:16.905Z,17.17
2022-10-23T22:15:13.707Z,17.17
2022-10-23T22:18:10.658Z,17.03
2022-10-23T22:21:09.460Z,17.00
2022-10-23T22:24:06.790Z,17.01
2022-10-23T22:27:04.047Z,17.00
2022-10-23T22:30:03.770Z,17.00
2022-10-23T22:33:00.905Z,17.04
2022-10-23T22:36:02.237Z,16.92
2022-10-23T22:38:59.263Z,16.85
2022-10-23T22:41:55.966Z,16.85
2022-10-23T22:44:52.735Z,16.83
2022-10-23T22:47:50.063Z,17.00
2022-10-23T22:50:47.197Z,17.03
2022-10-23T22:53:43.760Z,17.13
2022-10-23T22:56:42.496Z,17.04
2022-10-23T22:59:40.084Z,16.87
2022-10-23T23:02:36.845Z,16.89
2022-10-23T23:05:33.954Z,16.81
2022-10-23T23:08:30.726Z,16.79
2022-10-23T23:11:27.967Z,16.87
2022-10-23T23:14:24.892Z,16.96
2022-10-23T23:17:22.651Z,16.88
2022-10-23T23:20:19.785Z,16.82
2022-10-23T23:23:17.160Z,16.83
2022-10-23T23:26:14.165Z,16.62
2022-10-23T23:29:10.733Z,16.64
2022-10-23T23:32:07.931Z,16.54
2022-10-23T23:35:05.450Z,16.56
2022-10-23T23:38:03.142Z,16.71
2022-10-23T23:40:59.866Z,16.93
2022-10-23T23:43:57.528Z,16.84
2022-10-23T23:46:55.071Z,16.73
2022-10-23T23:49:52.004Z,16.65
2022-10-23T23:52:49.138Z,16.67
2022-10-23T23:55:46.181Z,16.61
2022-10-23T23:58:42.910Z,16.62
